Time;durP1;ratioP1;P1;durP2;ratioP2;P2;SDS_P1;SDS_P2;PMS_P1;PMS_P2;Temp;Humidity;BMP_temperature;BMP_pressure;BME280_temperature;BME280_humidity;BME280_pressure;Samples;Min_cycle;Max_cycle;Signal;HPM_P1;HPM_P2
2022/03/15 00:02:01;;;;;;;18.42;7.07;;;;;;;14.43;35.92;102085.84;5073622;28;20494;-77
2022/03/15 00:04:26;;;;;;;12.60;5.93;;;;;;;14.43;35.85;102087.75;5091920;28;20111;-74
2022/03/15 00:06:52;;;;;;;12.57;5.40;;;;;;;14.40;35.93;102083.69;5091787;28;20028;-77
2022/03/15 00:09:17;;;;;;;11.98;5.32;;;;;;;14.40;35.83;102078.19;5091688;28;20036;-83
2022/03/15 00:11:43;;;;;;;14.55;5.35;;;;;;;14.35;35.83;102081.03;5076950;28;20085;-75
2022/03/15 00:14:14;;;;;;;14.68;5.60;;;;;;;14.31;36.15;102073.72;5095578;28;20069;-75
2022/03/15 00:16:40;;;;;;;9.88;5.20;;;;;;;14.33;35.93;102069.53;5095322;28;20497;-75
2022/03/15 00:19:06;;;;;;;11.38;5.03;;;;;;;14.26;36.15;102068.31;5095402;28;20063;-74
2022/03/15 00:21:32;;;;;;;13.43;5.30;;;;;;;14.33;35.96;102065.97;5095383;28;20067;-73
2022/03/15 00:23:59;;;;;;;11.63;5.03;;;;;;;14.34;35.88;102064.84;5095295;28;20451;-74
2022/03/15 00:26:28;;;;;;;13.50;4.88;;;;;;;14.34;35.82;102059.34;5095232;28;20016;-74
2022/03/15 00:28:53;;;;;;;11.43;4.35;;;;;;;14.37;35.84;102048.56;5095165;28;20024;-82
2022/03/15 00:31:19;;;;;;;9.88;5.03;;;;;;;14.42;35.92;102048.44;5095183;28;20024;-81
2022/03/15 00:33:45;;;;;;;13.43;4.85;;;;;;;14.41;35.96;102051.50;5095098;28;20466;-80
2022/03/15 00:36:11;;;;;;;9.75;4.32;;;;;;;14.47;35.91;102052.25;5095002;28;20046;-74
2022/03/15 00:38:36;;;;;;;15.55;5.30;;;;;;;14.48;35.95;102054.69;5094995;28;20024;-75
2022/03/15 00:41:02;;;;;;;11.90;5.25;;;;;;;14.50;36.24;102060.69;5054930;28;20036;-78
2022/03/15 00:43:27;;;;;;;8.88;4.47;;;;;;;14.55;36.04;102054.28;5074702;28;20096;-80
2022/03/15 00:45:55;;;;;;;8.73;3.90;;;;;;;14.59;36.07;102058.06;5056407;28;20120;-74
2022/03/15 00:48:20;;;;;;;9.32;4.57;;;;;;;14.57;36.09;102046.53;5074629;28;20056;-75
2022/03/15 00:50:46;;;;;;;9.05;4.60;;;;;;;14.53;36.37;102053.78;5074462;28;20055;-82
2022/03/15 00:53:12;;;;;;;11.05;4.45;;;;;;;14.56;36.07;102047.66;5074348;28;20115;-74
2022/03/15 00:55:38;;;;;;;14.60;4.50;;;;;;;14.57;36.23;102041.84;5074485;28;20086;-78
2022/03/15 00:58:05;;;;;;;9.73;3.90;;;;;;;14.58;36.52;102046.22;5074238;28;20127;-80
2022/03/15 01:00:31;;;;;;;10.07;4.57;;;;;;;14.64;36.38;102041.41;5074357;28;20036;-78
2022/03/15 01:02:58;;;;;;;10.52;4.50;;;;;;;14.66;36.33;102041.91;5074329;28;20452;-81
2022/03/15 01:05:23;;;;;;;13.18;3.70;;;;;;;14.67;36.57;102038.06;5083602;28;20504;-75
2022/03/15 01:07:49;;;;;;;8.00;3.03;;;;;;;14.71;36.43;102030.81;5094211;28;20036;-75
2022/03/15 01:10:15;;;;;;;14.45;3.97;;;;;;;14.73;36.76;102031.31;5092995;28;20085;-76
2022/03/15 01:12:40;;;;;;;10.35;3.75;;;;;;;14.73;36.86;102025.00;5094394;28;20508;-82
2022/03/15 01:15:07;;;;;;;10.27;4.03;;;;;;;14.78;36.76;102028.44;5094373;28;20364;-80
2022/03/15 01:17:34;;;;;;;8.20;2.95;;;;;;;14.82;37.17;102025.91;5093974;28;20488;-75
2022/03/15 01:19:59;;;;;;;12.70;3.55;;;;;;;14.85;36.80;102026.09;5094091;28;20085;-74
2022/03/15 01:22:25;;;;;;;9.80;3.03;;;;;;;14.89;36.86;102027.09;5093319;28;20028;-76
2022/03/15 01:24:51;;;;;;;9.35;3.15;;;;;;;14.91;36.61;102027.59;5075878;28;20032;-74
2022/03/15 01:27:19;;;;;;;12.85;3.67;;;;;;;14.93;36.95;102019.84;5094167;28;20081;-74
2022/03/15 01:29:45;;;;;;;10.15;3.45;;;;;;;14.92;36.79;102020.97;5092735;28;20080;-76
2022/03/15 01:32:10;;;;;;;5.85;3.00;;;;;;;14.95;36.97;102008.50;5093916;28;20100;-76
2022/03/15 01:34:36;;;;;;;11.07;3.65;;;;;;;14.94;37.07;102015.97;5075786;28;20043;-75
2022/03/15 01:37:02;;;;;;;11.88;3.90;;;;;;;14.95;37.06;102006.56;5092691;28;20028;-80
2022/03/15 01:39:28;;;;;;;12.65;3.85;;;;;;;14.95;37.14;102003.81;5093787;28;20386;-74
2022/03/15 01:41:54;;;;;;;10.45;3.15;;;;;;;14.82;37.29;102004.72;5093838;28;20035;-81
2022/03/15 01:44:22;;;;;;;8.63;3.92;;;;;;;14.91;37.12;101997.34;5093690;28;20024;-79
2022/03/15 01:46:50;;;;;;;12.43;3.33;;;;;;;14.92;37.28;101996.19;5093435;28;20418;-75
2022/03/15 01:49:16;;;;;;;13.52;4.13;;;;;;;14.92;37.27;101992.63;5092330;28;20031;-74
2022/03/15 01:51:43;;;;;;;10.43;3.97;;;;;;;14.90;37.28;101983.88;5093646;28;20410;-75
2022/03/15 01:54:12;;;;;;;9.95;3.92;;;;;;;14.87;37.25;101985.31;5093649;28;20059;-74
2022/03/15 01:56:42;;;;;;;8.48;2.92;;;;;;;14.89;37.20;101974.81;5093629;28;20032;-75
2022/03/15 01:59:12;;;;;;;9.82;3.17;;;;;;;14.84;37.58;101974.94;5093472;28;20032;-75
2022/03/15 02:01:39;;;;;;;14.10;3.22;;;;;;;14.84;37.71;101969.44;5093417;28;20028;-76
2022/03/15 02:04:05;;;;;;;15.80;3.58;;;;;;;14.86;37.44;101969.91;5093235;28;20532;-79
2022/03/15 02:06:35;;;;;;;7.32;3.13;;;;;;;14.85;37.18;101968.31;5093332;28;20032;-75
2022/03/15 02:09:07;;;;;;;10.15;3.30;;;;;;;14.82;37.33;101963.44;5093206;28;20088;-76
2022/03/15 02:11:35;;;;;;;14.48;3.35;;;;;;;14.83;37.38;101965.06;5093371;28;20417;-74
2022/03/15 02:14:01;;;;;;;13.75;3.10;;;;;;;14.80;37.19;101962.91;5093163;28;20023;-74
2022/03/15 02:16:27;;;;;;;5.30;2.47;;;;;;;14.78;37.12;101954.16;5064700;28;20028;-74
2022/03/15 02:18:53;;;;;;;9.57;2.97;;;;;;;14.75;37.27;101949.28;5054891;28;20522;-75
2022/03/15 02:21:18;;;;;;;11.45;3.13;;;;;;;14.78;37.32;101953.34;5054942;28;20044;-77
2022/03/15 02:23:44;;;;;;;7.32;2.83;;;;;;;14.80;37.35;101948.34;5072784;28;20031;-76
2022/03/15 02:26:09;;;;;;;11.02;2.83;;;;;;;14.80;37.43;101946.41;5054703;28;20035;-75
2022/03/15 02:28:35;;;;;;;10.73;3.00;;;;;;;14.82;37.57;101933.16;5054519;28;20546;-74
2022/03/15 02:31:00;;;;;;;9.55;2.97;;;;;;;14.82;37.38;101930.41;5072629;28;20066;-81
2022/03/15 02:33:26;;;;;;;9.20;2.90;;;;;;;14.87;37.40;101923.94;5072641;28;20025;-74
2022/03/15 02:35:52;;;;;;;7.95;2.67;;;;;;;14.95;37.29;101935.00;5072521;28;20028;-75
2022/03/15 02:38:17;;;;;;;8.18;3.35;;;;;;;14.97;37.17;101935.53;5072325;28;20029;-80
2022/03/15 02:40:43;;;;;;;6.30;2.50;;;;;;;14.94;37.21;101929.84;5072310;28;20047;-75
2022/03/15 02:43:08;;;;;;;15.75;3.22;;;;;;;14.91;37.47;101924.97;5072559;28;20021;-77
2022/03/15 02:45:34;;;;;;;10.77;2.40;;;;;;;14.93;37.60;101926.28;5072280;28;20024;-82
2022/03/15 02:48:00;;;;;;;10.85;2.45;;;;;;;14.95;37.78;101921.25;5072305;28;20426;-74
2022/03/15 02:50:26;;;;;;;13.20;3.00;;;;;;;15.02;37.50;101914.50;5054504;28;20394;-74
2022/03/15 02:52:51;;;;;;;11.80;2.30;;;;;;;15.18;37.32;101921.22;5072436;28;20032;-74
2022/03/15 02:55:18;;;;;;;10.30;2.83;;;;;;;15.24;37.12;101911.72;5054413;28;20505;-77
2022/03/15 02:57:44;;;;;;;11.00;1.88;;;;;;;15.28;37.19;101912.72;5072142;28;20498;-76
2022/03/15 03:00:10;;;;;;;6.90;2.10;;;;;;;15.30;37.25;101909.66;5072131;28;20077;-76
2022/03/15 03:02:36;;;;;;;7.53;2.42;;;;;;;15.31;36.96;101900.25;5069853;28;20024;-76
2022/03/15 03:05:02;;;;;;;6.15;2.22;;;;;;;15.33;37.18;101911.75;5072044;28;20027;-76
2022/03/15 03:07:28;;;;;;;10.07;2.08;;;;;;;15.35;37.10;101902.06;5072013;28;20074;-75
2022/03/15 03:09:53;;;;;;;7.57;2.20;;;;;;;15.29;37.15;101886.81;5072158;28;20028;-76
2022/03/15 03:12:19;;;;;;;9.00;2.80;;;;;;;15.27;37.26;101875.31;5072075;28;20028;-81
2022/03/15 03:14:47;;;;;;;11.88;4.07;;;;;;;15.30;37.23;101885.69;5072228;28;20030;-80
2022/03/15 03:17:12;;;;;;;11.60;2.38;;;;;;;15.25;37.07;101869.28;5053937;28;20051;-74
2022/03/15 03:19:39;;;;;;;11.27;2.03;;;;;;;15.22;37.27;101879.00;5072109;28;20037;-82
2022/03/15 03:22:06;;;;;;;7.93;2.53;;;;;;;15.43;36.96;101876.50;5053972;28;20031;-79
2022/03/15 03:24:32;;;;;;;9.88;2.60;;;;;;;15.48;36.94;101879.09;5072118;28;20028;-75
2022/03/15 03:26:57;;;;;;;7.68;2.13;;;;;;;15.54;36.69;101875.06;5072167;28;20028;-75
2022/03/15 03:29:25;;;;;;;8.05;2.20;;;;;;;15.57;36.75;101868.13;5071897;28;20418;-75
2022/03/15 03:31:51;;;;;;;8.90;3.03;;;;;;;15.60;36.49;101863.91;5070887;28;20021;-75
2022/03/15 03:34:16;;;;;;;10.45;2.45;;;;;;;15.63;36.50;101866.84;5071766;28;20048;-77
2022/03/15 03:36:42;;;;;;;6.65;2.40;;;;;;;15.61;36.52;101865.53;5071971;28;20072;-76
2022/03/15 03:39:07;;;;;;;8.10;2.53;;;;;;;15.58;36.71;101860.69;5071895;28;20082;-76
2022/03/15 03:41:34;;;;;;;6.43;2.22;;;;;;;15.54;36.36;101860.50;5071914;28;20029;-81
2022/03/15 03:44:00;;;;;;;8.70;2.78;;;;;;;15.58;36.29;101863.44;5071865;28;20502;-80
2022/03/15 03:46:27;;;;;;;10.45;3.03;;;;;;;15.55;36.43;101856.59;5084245;28;20028;-81
2022/03/15 03:48:53;;;;;;;13.23;2.95;;;;;;;15.55;36.49;101862.09;5094733;28;20490;-75
2022/03/15 03:51:18;;;;;;;11.32;3.08;;;;;;;15.57;36.26;101856.28;5096104;28;20102;-75
2022/03/15 03:53:44;;;;;;;10.20;2.75;;;;;;;15.51;36.32;101852.88;5096029;28;20024;-79
2022/03/15 03:56:10;;;;;;;13.68;3.22;;;;;;;15.74;35.76;101853.63;5095851;28;20020;-76
2022/03/15 03:58:36;;;;;;;8.75;3.28;;;;;;;15.79;35.71;101853.44;5095547;28;20055;-74
2022/03/15 04:01:02;;;;;;;10.45;2.15;;;;;;;15.49;36.19;101850.44;5095751;28;20038;-74
2022/03/15 04:03:30;;;;;;;17.75;3.15;;;;;;;15.42;36.40;101841.84;5095764;28;20054;-75
2022/03/15 04:05:56;;;;;;;6.85;2.28;;;;;;;15.39;36.45;101836.94;5095744;28;20478;-74
2022/03/15 04:08:23;;;;;;;8.23;2.25;;;;;;;15.40;36.46;101837.75;5095733;28;20123;-74
2022/03/15 04:10:50;;;;;;;6.50;2.10;;;;;;;15.39;36.50;101831.44;5095621;28;20020;-79
2022/03/15 04:13:18;;;;;;;6.88;2.22;;;;;;;15.38;36.39;101827.06;5095613;28;20032;-77
2022/03/15 04:15:45;;;;;;;4.88;1.95;;;;;;;15.41;36.21;101828.34;5095197;28;20390;-78
2022/03/15 04:18:11;;;;;;;10.98;2.83;;;;;;;15.41;36.35;101829.16;5095266;28;20113;-80
2022/03/15 04:20:36;;;;;;;10.23;2.65;;;;;;;15.39;36.33;101820.41;5095449;28;20620;-76
2022/03/15 04:23:02;;;;;;;9.23;2.83;;;;;;;15.34;36.32;101820.59;5095382;28;20081;-78
2022/03/15 04:25:28;;;;;;;7.95;2.45;;;;;;;15.26;36.32;101818.59;5095465;28;20028;-76
2022/03/15 04:27:56;;;;;;;9.32;2.65;;;;;;;15.26;36.49;101816.69;5095110;28;20047;-75
2022/03/15 04:30:24;;;;;;;8.27;2.15;;;;;;;15.29;36.20;101812.47;5095169;28;20028;-79
2022/03/15 04:32:50;;;;;;;6.80;2.25;;;;;;;15.31;36.29;101812.94;5095143;28;20050;-75
2022/03/15 04:35:15;;;;;;;5.82;1.40;;;;;;;15.32;36.15;101808.25;5095177;28;20024;-75
2022/03/15 04:37:41;;;;;;;6.35;1.90;;;;;;;15.31;36.20;101807.44;5095216;28;20162;-78
2022/03/15 04:40:07;;;;;;;3.38;1.33;;;;;;;15.31;36.18;101812.94;5094938;28;20378;-75
2022/03/15 04:42:34;;;;;;;3.50;1.25;;;;;;;15.40;36.10;101822.03;5094921;28;20161;-81
2022/03/15 04:44:59;;;;;;;9.63;2.20;;;;;;;15.41;35.95;101818.16;5094471;28;20028;-75
2022/03/15 04:47:25;;;;;;;6.85;1.30;;;;;;;15.44;36.12;101806.50;5074686;28;20024;-75
2022/03/15 04:49:51;;;;;;;6.85;1.45;;;;;;;15.44;35.97;101812.03;5056783;28;20490;-75
2022/03/15 04:52:17;;;;;;;4.25;1.58;;;;;;;15.49;35.70;101811.88;5056616;28;20033;-80
2022/03/15 04:54:44;;;;;;;11.55;1.50;;;;;;;15.51;35.99;101808.81;5074543;28;20108;-75
2022/03/15 04:57:09;;;;;;;3.13;0.90;;;;;;;15.54;35.63;101819.16;5073030;28;20399;-75
2022/03/15 04:59:35;;;;;;;4.13;1.10;;;;;;;15.67;35.52;101825.72;5074412;28;20028;-75
2022/03/15 05:02:00;;;;;;;7.13;1.85;;;;;;;15.75;35.54;101819.41;5074253;28;20478;-75
2022/03/15 05:04:26;;;;;;;6.82;1.27;;;;;;;15.78;35.40;101819.56;5074371;28;20050;-75
2022/03/15 05:06:51;;;;;;;4.97;1.60;;;;;;;15.81;35.27;101810.69;5074323;28;20071;-78
2022/03/15 05:09:17;;;;;;;4.15;1.60;;;;;;;15.73;35.30;101814.22;5074383;28;20060;-78
2022/03/15 05:11:46;;;;;;;9.27;1.65;;;;;;;15.71;35.35;101819.22;5074276;28;20074;-81
2022/03/15 05:14:12;;;;;;;3.92;1.48;;;;;;;15.74;35.20;101815.03;5074137;28;20031;-80
2022/03/15 05:16:39;;;;;;;5.25;1.30;;;;;;;15.74;35.16;101818.59;5055928;28;20017;-78
2022/03/15 05:19:05;;;;;;;6.00;1.77;;;;;;;15.71;35.26;101827.50;5074229;28;20036;-81
2022/03/15 05:21:30;;;;;;;4.63;1.33;;;;;;;15.70;35.15;101814.03;5074109;28;20033;-75
2022/03/15 05:23:56;;;;;;;9.02;1.80;;;;;;;15.66;35.28;101813.91;5074126;28;20070;-78
2022/03/15 05:26:22;;;;;;;3.60;1.38;;;;;;;15.69;34.99;101806.91;5055887;28;20036;-81
2022/03/15 05:28:49;;;;;;;4.75;1.77;;;;;;;15.60;35.35;101800.56;5055918;28;20021;-75
2022/03/15 05:31:16;;;;;;;5.65;1.83;;;;;;;15.64;35.13;101802.41;5073919;28;20478;-75
2022/03/15 05:33:43;;;;;;;5.88;1.45;;;;;;;15.57;35.22;101798.44;5055876;28;20028;-74
2022/03/15 05:36:09;;;;;;;7.30;1.83;;;;;;;15.64;35.25;101782.28;5055956;28;20039;-78
2022/03/15 05:38:35;;;;;;;3.72;1.42;;;;;;;15.61;34.95;101796.66;5073669;28;20032;-81
2022/03/15 05:41:01;;;;;;;9.45;1.15;;;;;;;15.64;35.06;101790.53;5072482;28;20021;-79
2022/03/15 05:43:28;;;;;;;5.05;1.45;;;;;;;15.64;35.09;101783.09;5073641;28;20016;-78
2022/03/15 05:45:53;;;;;;;8.70;1.38;;;;;;;15.59;35.18;101796.19;5073179;28;20107;-75
2022/03/15 05:48:19;;;;;;;9.25;1.40;;;;;;;15.62;35.07;101793.63;5073563;28;20465;-80
2022/03/15 05:50:45;;;;;;;6.47;1.58;;;;;;;15.67;34.73;101795.41;5073384;28;20021;-78
2022/03/15 05:53:10;;;;;;;7.00;1.45;;;;;;;15.64;34.77;101791.38;5073326;28;20031;-81
2022/03/15 05:55:37;;;;;;;6.38;2.05;;;;;;;15.68;34.72;101788.78;5073360;28;20021;-75
2022/03/15 05:58:03;;;;;;;3.63;1.13;;;;;;;15.61;34.81;101794.75;5072795;28;20129;-76
2022/03/15 06:00:29;;;;;;;6.47;1.30;;;;;;;15.58;34.96;101792.63;5055467;28;20097;-77
2022/03/15 06:02:55;;;;;;;3.92;1.30;;;;;;;15.49;35.18;101789.00;5073098;28;20033;-78
2022/03/15 06:05:21;;;;;;;5.28;1.35;;;;;;;15.52;34.83;101783.69;5073143;28;20024;-78
2022/03/15 06:07:49;;;;;;;6.72;1.92;;;;;;;15.42;35.04;101781.25;5072806;28;20029;-79
2022/03/15 06:10:17;;;;;;;4.25;1.20;;;;;;;15.46;34.78;101779.47;5072971;28;20028;-75
2022/03/15 06:12:43;;;;;;;2.60;1.08;;;;;;;15.57;34.50;101777.22;5072992;28;20025;-76
2022/03/15 06:15:10;;;;;;;4.43;1.30;;;;;;;15.62;34.39;101788.09;5073038;28;20070;-74
2022/03/15 06:18:01;;;;;;;5.10;1.30;;;;;;;15.56;34.59;101778.34;5072688;28;20364;-77
2022/03/15 06:20:27;;;;;;;6.75;1.60;;;;;;;15.52;34.71;101786.44;5071113;28;20039;-77
2022/03/15 06:22:53;;;;;;;4.05;1.13;;;;;;;15.52;34.54;101780.94;5054774;28;20024;-74
2022/03/15 06:25:20;;;;;;;5.18;1.13;;;;;;;15.48;34.77;101779.94;5072670;28;20052;-75
2022/03/15 06:27:46;;;;;;;3.78;1.10;;;;;;;15.52;34.34;101772.66;5072741;28;20027;-75
2022/03/15 06:30:12;;;;;;;10.50;1.77;;;;;;;15.52;34.43;101772.66;5054653;28;20078;-74
2022/03/15 06:32:39;;;;;;;8.10;1.83;;;;;;;15.37;34.69;101762.09;5072688;28;20028;-74
2022/03/15 06:35:07;;;;;;;5.50;1.17;;;;;;;15.48;34.74;101774.44;5072517;28;20048;-75
2022/03/15 06:37:43;;;;;;;11.40;2.53;;;;;;;15.43;34.73;101765.53;5072618;28;20466;-75
2022/03/15 06:40:09;;;;;;;4.38;1.00;;;;;;;15.54;34.70;101766.84;5072489;28;20413;-80
2022/03/15 06:42:36;;;;;;;5.03;0.95;;;;;;;15.53;34.81;101766.03;5054722;28;20028;-80
2022/03/15 06:45:03;;;;;;;2.90;0.88;;;;;;;15.53;34.62;101757.75;5052128;28;20440;-75
2022/03/15 06:47:28;;;;;;;9.40;1.60;;;;;;;15.53;34.77;101756.94;5072096;28;20024;-74
2022/03/15 06:49:54;;;;;;;6.65;1.30;;;;;;;15.51;34.80;101762.78;5072624;28;20073;-75
2022/03/15 06:52:20;;;;;;;6.03;1.30;;;;;;;15.62;34.91;101757.00;5069919;28;20372;-80
2022/03/15 06:54:45;;;;;;;4.30;1.42;;;;;;;15.64;34.56;101763.81;5072450;28;20028;-81
2022/03/15 06:57:11;;;;;;;3.38;1.40;;;;;;;15.68;34.42;101762.03;5071744;28;20045;-74
2022/03/15 06:59:36;;;;;;;7.05;1.27;;;;;;;15.66;34.49;101757.97;5054013;28;20029;-74
2022/03/15 07:02:02;;;;;;;3.85;1.00;;;;;;;15.66;34.70;101760.75;5055832;28;20060;-75
2022/03/15 07:04:28;;;;;;;6.85;1.27;;;;;;;15.69;34.68;101757.31;5071405;28;20028;-75
2022/03/15 07:06:53;;;;;;;4.90;1.58;;;;;;;15.64;34.79;101757.47;5072246;28;20033;-75
2022/03/15 07:09:19;;;;;;;3.95;0.95;;;;;;;15.66;34.83;101760.75;5054040;28;20024;-74
2022/03/15 07:11:44;;;;;;;6.50;1.27;;;;;;;15.70;34.48;101748.72;5044241;28;20024;-74
2022/03/15 07:14:10;;;;;;;5.78;1.25;;;;;;;15.67;34.58;101754.09;5054965;28;20031;-75
2022/03/15 07:16:35;;;;;;;9.43;1.45;;;;;;;15.69;34.98;101746.31;5055493;28;20054;-80
2022/03/15 07:19:01;;;;;;;5.97;2.08;;;;;;;15.77;34.67;101753.75;5037784;28;20135;-75
2022/03/15 07:21:27;;;;;;;4.47;1.20;;;;;;;15.73;34.73;101752.81;5041238;28;20021;-74
2022/03/15 07:23:52;;;;;;;2.58;1.10;;;;;;;15.77;34.65;101748.25;5058611;28;20028;-74
2022/03/15 07:26:18;;;;;;;5.15;1.25;;;;;;;15.71;34.84;101744.03;5059988;28;20588;-74
2022/03/15 07:28:44;;;;;;;6.80;1.42;;;;;;;15.69;34.83;101736.09;5041032;28;20174;-81
2022/03/15 07:31:09;;;;;;;6.70;1.10;;;;;;;15.76;35.06;101739.19;5059412;28;20089;-79
2022/03/15 07:33:35;;;;;;;8.65;2.28;;;;;;;15.80;34.88;101733.84;5059497;28;20082;-75
2022/03/15 07:36:01;;;;;;;4.20;1.23;;;;;;;15.87;34.87;101736.09;5059899;28;20032;-74
2022/03/15 07:38:27;;;;;;;4.53;1.30;;;;;;;15.91;34.84;101721.34;5063747;28;20028;-74
2022/03/15 07:40:53;;;;;;;2.30;1.10;;;;;;;15.95;35.01;101719.56;5075929;28;20040;-73
2022/03/15 07:43:23;;;;;;;7.38;1.25;;;;;;;15.99;35.03;101715.00;5075930;28;20028;-74
2022/03/15 07:45:50;;;;;;;8.10;1.52;;;;;;;15.99;35.02;101712.25;5075923;28;20032;-79
2022/03/15 07:48:16;;;;;;;6.22;1.63;;;;;;;16.14;34.95;101710.13;5075850;28;20032;-74
2022/03/15 07:50:42;;;;;;;12.32;3.38;;;;;;;16.11;35.03;101708.84;5075702;28;20029;-75
2022/03/15 07:53:08;;;;;;;6.80;2.15;;;;;;;16.11;35.33;101703.34;5074468;28;20169;-73
2022/03/15 07:55:36;;;;;;;12.88;2.20;;;;;;;16.16;35.08;101691.31;5075676;28;20538;-81
2022/03/15 07:58:03;;;;;;;7.05;2.53;;;;;;;16.14;35.23;101688.88;5075356;28;20132;-73
2022/03/15 08:00:29;;;;;;;12.43;2.50;;;;;;;16.16;35.31;101689.34;5075466;28;20029;-74
2022/03/15 08:02:54;;;;;;;15.30;2.13;;;;;;;16.17;35.33;101690.16;5075626;28;20471;-75
2022/03/15 08:05:21;;;;;;;11.75;1.95;;;;;;;16.23;35.07;101689.66;5075495;28;20506;-74
2022/03/15 08:07:46;;;;;;;20.23;2.30;;;;;;;16.16;35.11;101680.28;5064493;28;20261;-74
2022/03/15 08:10:12;;;;;;;25.60;4.22;;;;;;;16.13;35.06;101679.00;5041887;28;20116;-74
2022/03/15 08:12:39;;;;;;;25.00;4.30;;;;;;;16.07;34.72;101672.84;5041573;28;20035;-75
2022/03/15 08:15:06;;;;;;;25.60;3.30;;;;;;;16.24;34.54;101679.44;5059478;28;20059;-75
2022/03/15 08:17:36;;;;;;;38.75;8.07;;;;;;;16.30;34.43;101675.38;5041549;28;20037;-75
2022/03/15 08:20:02;;;;;;;45.88;8.23;;;;;;;16.41;34.40;101668.38;5061517;28;20028;-74
2022/03/15 08:22:30;;;;;;;15.90;3.28;;;;;;;16.57;34.08;101676.91;5061799;28;20028;-73
2022/03/15 08:24:56;;;;;;;24.02;6.03;;;;;;;16.60;33.97;101668.78;5058955;28;20028;-81
2022/03/15 08:27:22;;;;;;;27.15;5.13;;;;;;;16.76;33.66;101679.28;5059282;28;20033;-74
2022/03/15 08:29:48;;;;;;;24.02;5.85;;;;;;;16.96;33.36;101675.78;5053647;28;20021;-73
2022/03/15 08:32:13;;;;;;;13.98;2.63;;;;;;;16.96;33.42;101670.25;5039016;28;20526;-75
2022/03/15 08:34:39;;;;;;;11.93;2.70;;;;;;;17.05;33.09;101670.22;5070875;28;20019;-76
2022/03/15 08:37:05;;;;;;;14.75;3.25;;;;;;;17.19;32.98;101668.00;5093661;28;20024;-75
2022/03/15 08:39:31;;;;;;;15.60;3.28;;;;;;;17.20;32.91;101656.63;5093587;28;20512;-75
2022/03/15 08:41:57;;;;;;;22.30;4.22;;;;;;;17.24;32.96;101658.72;5093566;28;20028;-75
2022/03/15 08:44:23;;;;;;;29.40;5.90;;;;;;;17.31;32.82;101656.25;5093553;28;20066;-75
2022/03/15 08:46:52;;;;;;;15.30;5.43;;;;;;;17.32;32.65;101657.84;5092280;28;20023;-75
2022/03/15 08:49:19;;;;;;;18.23;3.72;;;;;;;17.45;32.38;101665.03;5094766;28;20055;-75
2022/03/15 08:51:46;;;;;;;46.70;9.23;;;;;;;17.50;32.39;101664.84;5094842;28;20028;-75
2022/03/15 08:54:12;;;;;;;29.08;5.70;;;;;;;17.59;32.38;101662.81;5094820;28;20474;-75
2022/03/15 08:56:41;;;;;;;5.32;1.50;;;;;;;17.66;32.16;101665.03;5086602;28;20031;-81
2022/03/15 08:59:15;;;;;;;19.58;4.50;;;;;;;17.63;32.30;101668.50;5074499;28;20044;-80
2022/03/15 09:01:41;;;;;;;24.77;3.58;;;;;;;17.69;32.02;101656.91;5074208;28;20548;-79
2022/03/15 09:04:07;;;;;;;24.00;3.10;;;;;;;17.82;32.03;101654.19;5074153;28;20033;-83
2022/03/15 09:06:33;;;;;;;23.42;4.32;;;;;;;17.81;32.11;101641.53;5074347;28;20032;-75
2022/03/15 09:09:02;;;;;;;17.58;4.55;;;;;;;17.94;32.12;101651.47;5074168;28;20028;-79
2022/03/15 09:11:29;;;;;;;14.77;2.40;;;;;;;17.94;32.08;101645.94;5056257;28;20036;-76
2022/03/15 09:13:55;;;;;;;23.42;5.60;;;;;;;17.91;32.55;101646.63;5066858;28;20020;-78
2022/03/15 09:16:21;;;;;;;18.38;2.85;;;;;;;18.15;32.05;101649.47;5045546;28;20035;-78
2022/03/15 09:18:47;;;;;;;11.13;1.40;;;;;;;18.19;32.21;101650.38;5055386;28;20181;-79
2022/03/15 09:21:12;;;;;;;24.98;3.25;;;;;;;18.04;32.33;101651.03;5038712;28;20037;-80
2022/03/15 09:23:39;;;;;;;16.27;3.85;;;;;;;18.19;32.29;101647.63;5057650;28;20040;-77
2022/03/15 09:26:04;;;;;;;27.25;4.72;;;;;;;18.23;32.52;101648.56;5057686;28;20045;-77
2022/03/15 09:28:30;;;;;;;24.67;4.80;;;;;;;18.32;32.69;101654.00;5058008;28;20028;-77
2022/03/15 09:30:56;;;;;;;6.25;1.33;;;;;;;18.46;32.60;101648.94;5057099;28;20024;-78
2022/03/15 09:33:23;;;;;;;20.60;3.20;;;;;;;18.47;32.79;101641.44;5093694;28;20072;-79
2022/03/15 09:35:49;;;;;;;17.90;3.58;;;;;;;18.48;33.08;101640.28;5093772;28;20032;-79
2022/03/15 09:38:15;;;;;;;18.02;2.83;;;;;;;18.66;32.91;101640.91;5093569;28;20486;-79
2022/03/15 09:40:42;;;;;;;23.10;5.75;;;;;;;18.72;33.22;101637.56;5075876;28;20032;-79
2022/03/15 09:43:11;;;;;;;19.33;2.88;;;;;;;18.80;33.10;101644.94;5092872;28;20035;-79
2022/03/15 09:45:37;;;;;;;11.88;2.85;;;;;;;19.01;33.04;101647.56;5093405;28;20024;-79
2022/03/15 09:48:13;;;;;;;20.33;2.83;;;;;;;18.97;33.43;101643.91;5093062;28;20379;-79
2022/03/15 09:50:42;;;;;;;21.10;3.90;;;;;;;19.07;33.39;101648.94;5078610;28;20020;-79
2022/03/15 09:53:09;;;;;;;9.50;2.08;;;;;;;19.26;33.13;101644.75;5070014;28;20064;-79
2022/03/15 09:55:34;;;;;;;15.10;2.80;;;;;;;19.33;33.22;101640.22;5072869;28;20027;-78
2022/03/15 09:58:01;;;;;;;27.80;4.53;;;;;;;19.41;33.16;101642.03;5073134;28;20040;-79
2022/03/15 10:00:26;;;;;;;6.97;1.52;;;;;;;19.44;33.09;101640.56;5073248;28;20024;-78
2022/03/15 10:02:52;;;;;;;8.98;1.75;;;;;;;19.51;33.06;101634.41;5073104;28;20028;-78
2022/03/15 10:05:18;;;;;;;23.98;3.60;;;;;;;19.54;33.06;101630.94;5071565;28;20524;-78
2022/03/15 10:07:45;;;;;;;7.25;1.88;;;;;;;19.60;32.83;101624.00;5073063;28;20378;-78
2022/03/15 10:10:14;;;;;;;11.50;2.80;;;;;;;19.64;33.07;101633.22;5072974;28;20028;-79
2022/03/15 10:12:40;;;;;;;25.98;6.03;;;;;;;19.72;32.99;101620.38;5072492;28;20038;-79
2022/03/15 10:15:11;;;;;;;29.13;5.32;;;;;;;19.77;33.23;101622.88;5054119;28;20115;-78
2022/03/15 10:17:46;;;;;;;5.88;1.90;;;;;;;19.88;33.02;101613.72;5072947;28;20083;-78
2022/03/15 10:20:15;;;;;;;24.92;4.95;;;;;;;19.86;33.24;101613.25;5091529;28;20055;-78
2022/03/15 10:22:51;;;;;;;5.72;2.13;;;;;;;20.12;32.80;101617.50;5093017;28;20026;-78
2022/03/15 10:25:17;;;;;;;24.70;3.00;;;;;;;20.16;32.94;101610.06;5074819;28;20047;-78
2022/03/15 10:27:48;;;;;;;13.30;3.13;;;;;;;20.20;32.86;101613.75;5074830;28;20530;-78
2022/03/15 10:30:14;;;;;;;11.95;2.92;;;;;;;20.23;32.96;101613.03;5074842;28;20488;-78
2022/03/15 10:32:40;;;;;;;23.67;4.35;;;;;;;20.81;32.08;101612.47;5074827;28;20032;-78
2022/03/15 10:35:08;;;;;;;12.68;2.30;;;;;;;20.44;32.90;101613.59;5068456;28;20032;-79
2022/03/15 10:37:35;;;;;;;11.60;2.67;;;;;;;20.46;32.93;101605.69;5052652;28;20025;-79
2022/03/15 10:40:03;;;;;;;12.75;2.35;;;;;;;20.53;32.89;101602.28;5034681;28;20039;-78
2022/03/15 10:42:28;;;;;;;15.98;3.33;;;;;;;20.45;32.77;101601.31;5052618;28;20383;-78
2022/03/15 10:44:56;;;;;;;16.95;3.55;;;;;;;20.55;33.03;101599.16;5034443;28;20032;-79
2022/03/15 10:47:21;;;;;;;15.50;2.65;;;;;;;20.49;33.08;101593.91;5034866;28;20024;-78
2022/03/15 10:49:55;;;;;;;14.05;3.33;;;;;;;20.53;33.06;101601.50;5067400;28;20372;-79
2022/03/15 10:52:40;;;;;;;6.18;1.98;;;;;;;20.72;32.60;101596.00;5070879;28;20039;-77
2022/03/15 10:55:22;;;;;;;8.23;2.28;;;;;;;20.56;32.59;101587.72;5072331;28;20021;-78
2022/03/15 10:57:58;;;;;;;10.10;2.60;;;;;;;20.65;32.78;101587.53;5054290;28;20052;-77
2022/03/15 11:00:25;;;;;;;10.15;3.10;;;;;;;20.70;32.70;101579.69;5071051;28;20036;-78
2022/03/15 11:02:51;;;;;;;18.67;3.08;;;;;;;20.76;32.54;101577.44;5072210;28;20029;-77
2022/03/15 11:05:36;;;;;;;8.95;2.22;;;;;;;20.74;32.49;101569.47;5054286;28;20028;-77
2022/03/15 11:08:07;;;;;;;6.03;1.80;;;;;;;20.53;32.73;101570.97;5072045;28;20036;-78
2022/03/15 11:10:33;;;;;;;17.58;2.83;;;;;;;20.57;32.55;101566.31;5072269;28;20052;-78
2022/03/15 11:13:09;;;;;;;12.73;2.50;;;;;;;20.72;32.36;101571.81;5072228;28;20031;-77
2022/03/15 11:15:40;;;;;;;6.65;1.73;;;;;;;20.73;32.35;101569.84;5054562;28;20585;-78
2022/03/15 11:18:08;;;;;;;15.70;3.00;;;;;;;20.76;32.35;101549.69;5053343;28;20036;-78
2022/03/15 11:20:39;;;;;;;23.30;3.60;;;;;;;20.96;32.40;101556.88;5090112;28;20028;-80